Time;durP1;ratioP1;P1;durP2;ratioP2;P2;SDS_P1;SDS_P2;PMS_P1;PMS_P2;Temp;Humidity;BMP_temperature;BMP_pressure;BME280_temperature;BME280_humidity;BME280_pressure;Samples;Min_cycle;Max_cycle;Signal;HPM_P1;HPM_P2
2022/02/04 00:08:37;;;;;;;3.22;3.13;;;;;;;5.98;98.55;100877.91;5970917;23;20222;-67
2022/02/04 00:24:51;;;;;;;3.40;3.30;;;;;;;6.13;98.51;100903.53;5946924;24;20561;-67
2022/02/04 00:27:19;;;;;;;5.20;5.00;;;;;;;6.12;97.52;100906.16;6000187;23;20443;-66
2022/02/04 00:29:55;;;;;;;3.60;3.50;;;;;;;5.91;97.78;100861.59;5999272;23;20034;-67
2022/02/04 00:32:24;;;;;;;5.95;5.65;;;;;;;4.97;97.57;100713.41;6000707;23;20433;-66
2022/02/04 00:34:59;;;;;;;3.60;3.50;;;;;;;6.14;97.92;100891.34;5977653;23;20029;-67
2022/02/04 00:37:39;;;;;;;4.03;3.83;;;;;;;6.03;97.77;100869.94;5992255;23;20011;-66
2022/02/04 00:40:13;;;;;;;3.63;3.53;;;;;;;6.05;97.11;100862.94;5955868;23;20023;-69
2022/02/04 00:42:40;;;;;;;3.45;3.35;;;;;;;6.20;97.06;100919.81;5996802;23;20031;-68
2022/02/04 00:45:56;;;;;;;3.92;3.72;;;;;;;5.81;96.73;100836.72;5972592;23;20019;-69
2022/02/04 00:50:57;;;;;;;3.55;3.45;;;;;;;6.17;96.34;100893.81;5978931;23;20026;-67
2022/02/04 01:26:15;;;;;;;3.45;3.35;;;;;;;6.17;96.04;100860.81;6007810;23;20098;-67
2022/02/04 01:28:45;;;;;;;3.72;3.63;;;;;;;6.17;96.96;100863.44;5993356;23;20086;-67
2022/02/04 01:31:16;;;;;;;5.63;5.40;;;;;;;5.95;96.31;100831.09;6029078;23;20026;-66
2022/02/04 01:33:44;;;;;;;3.30;3.20;;;;;;;6.17;95.41;100866.03;5999329;23;20027;-67
2022/02/04 01:36:13;;;;;;;4.38;4.18;;;;;;;6.22;95.04;100875.47;6033117;23;20033;-68
2022/02/04 01:38:39;;;;;;;4.22;3.80;;;;;;;6.33;94.96;100871.59;5983966;23;20627;-67
2022/02/04 01:41:08;;;;;;;3.45;3.35;;;;;;;6.09;94.75;100841.09;6032667;23;20022;-67
2022/02/04 01:43:38;;;;;;;3.50;3.40;;;;;;;6.30;94.60;100874.31;5997209;23;20027;-66
2022/02/04 01:46:07;;;;;;;3.58;3.47;;;;;;;5.33;94.54;100718.41;6034410;23;20101;-66
2022/02/04 01:48:34;;;;;;;3.60;3.50;;;;;;;6.27;94.18;100871.78;5997978;23;20019;-66
2022/02/04 01:51:03;;;;;;;3.67;3.55;;;;;;;6.17;94.08;100860.81;6005488;23;20451;-66
2022/02/04 01:53:30;;;;;;;3.92;3.72;;;;;;;6.27;94.63;100866.56;5998485;23;20023;-67
2022/02/04 01:56:03;;;;;;;3.40;3.30;;;;;;;6.27;94.08;100861.38;6010024;23;20033;-66
2022/02/04 01:58:30;;;;;;;3.63;3.53;;;;;;;6.26;94.76;100864.03;5997807;23;20016;-66
2022/02/04 02:00:57;;;;;;;4.00;3.80;;;;;;;5.75;94.90;100788.28;6023673;23;20018;-67
2022/02/04 02:03:24;;;;;;;4.93;4.72;;;;;;;6.19;94.82;100850.34;6030647;23;20018;-66
2022/02/04 02:05:53;;;;;;;3.78;3.50;;;;;;;6.19;94.74;100845.13;5997700;23;20157;-67
2022/02/04 02:08:20;;;;;;;3.47;3.38;;;;;;;6.19;95.21;100850.34;6034809;23;20018;-67
2022/02/04 02:10:49;;;;;;;3.70;3.60;;;;;;;6.18;94.56;100843.44;5999208;23;20393;-67
2022/02/04 02:15:59;;;;;;;3.50;3.40;;;;;;;6.17;95.14;100837.38;6006614;23;20027;-67
2022/02/04 02:39:07;;;;;;;3.53;3.42;;;;;;;5.88;93.96;100782.69;6025252;23;20050;-66
2022/02/04 02:43:32;;;;;;;4.47;4.28;;;;;;;6.04;94.09;100820.41;6025254;23;20436;-67
2022/02/04 02:51:26;;;;;;;4.03;3.83;;;;;;;6.11;92.76;100821.06;5989337;23;20030;-67
2022/02/04 02:57:04;;;;;;;3.60;3.50;;;;;;;6.15;93.14;100826.16;5985197;23;20149;-66
2022/02/04 02:59:34;;;;;;;4.70;4.50;;;;;;;6.22;91.95;100833.78;6028297;23;20027;-66
2022/02/04 03:02:00;;;;;;;3.47;3.38;;;;;;;6.21;92.33;100830.28;5992751;23;20023;-68
2022/02/04 03:04:27;;;;;;;3.70;3.60;;;;;;;6.28;91.98;100834.41;6023780;23;20036;-70
2022/02/04 03:06:53;;;;;;;3.97;3.78;;;;;;;6.26;92.54;100830.16;6027425;23;20022;-68
2022/02/04 03:09:19;;;;;;;5.32;5.13;;;;;;;6.24;92.11;100830.22;6030951;23;20023;-66
2022/02/04 03:11:46;;;;;;;3.47;3.38;;;;;;;5.83;91.42;100759.38;6003916;23;20483;-66
2022/02/04 03:14:12;;;;;;;5.13;4.93;;;;;;;4.94;90.93;100609.44;6033338;23;20035;-67
2022/02/04 03:16:39;;;;;;;3.60;3.50;;;;;;;5.84;91.36;100753.28;6020594;23;20086;-66
2022/02/04 03:19:07;;;;;;;3.40;3.30;;;;;;;5.21;90.49;100666.72;6044696;23;20519;-67
2022/02/04 03:21:38;;;;;;;3.40;3.30;;;;;;;6.31;90.31;100823.88;5974013;23;20112;-67
2022/02/04 03:24:10;;;;;;;3.40;3.30;;;;;;;6.01;90.34;100762.34;6002836;23;20042;-66
2022/02/04 03:26:53;;;;;;;3.80;3.60;;;;;;;6.33;89.99;100811.66;5993108;23;20649;-66
2022/02/04 03:29:26;;;;;;;5.40;5.20;;;;;;;5.37;90.67;100644.56;6023525;23;20019;-67
2022/02/04 03:31:59;;;;;;;3.50;3.40;;;;;;;5.63;90.42;100683.66;5993554;23;20023;-67
2022/02/04 03:34:25;;;;;;;4.00;3.80;;;;;;;6.33;89.59;100793.41;5991820;23;20018;-67
2022/02/04 03:36:52;;;;;;;3.70;3.60;;;;;;;6.08;90.40;100756.88;5998082;23;20294;-67
2022/02/04 03:39:18;;;;;;;5.18;4.97;;;;;;;6.08;90.42;100759.50;6023137;23;20333;-67
2022/02/04 03:41:45;;;;;;;3.83;3.70;;;;;;;6.26;89.84;100785.84;6000731;23;20003;-69
2022/02/04 03:44:11;;;;;;;3.67;3.58;;;;;;;6.38;89.09;100798.47;6033568;23;20050;-66
2022/02/04 03:46:38;;;;;;;3.50;3.40;;;;;;;6.30;89.86;100803.94;6003868;23;20095;-67
2022/02/04 03:49:04;;;;;;;4.10;3.90;;;;;;;6.36;90.75;100789.88;6029671;23;20030;-67
2022/02/04 03:51:31;;;;;;;3.40;3.30;;;;;;;6.36;89.93;100788.09;6033648;23;20222;-66
2022/02/04 03:53:57;;;;;;;4.28;4.07;;;;;;;6.27;90.23;100771.91;6007878;23;20023;-66
2022/02/04 03:56:23;;;;;;;3.70;3.60;;;;;;;6.38;90.55;100781.06;5995894;23;20111;-69
2022/02/04 03:58:50;;;;;;;3.45;3.35;;;;;;;6.36;89.69;100780.28;6028589;23;20028;-68
2022/02/04 04:01:16;;;;;;;5.55;5.35;;;;;;;6.37;89.93;100788.94;5997359;23;20460;-68
2022/02/04 04:03:43;;;;;;;4.10;3.80;;;;;;;6.36;90.90;100785.50;6028140;23;20456;-67
2022/02/04 04:06:11;;;;;;;4.78;4.57;;;;;;;6.37;90.87;100789.81;5994332;23;20033;-66
2022/02/04 04:08:37;;;;;;;3.53;3.42;;;;;;;6.21;90.73;100753.88;6029224;23;20018;-67
2022/02/04 04:11:04;;;;;;;3.30;3.20;;;;;;;6.37;90.20;100789.81;6026742;23;20571;-67
2022/02/04 04:13:30;;;;;;;3.50;3.40;;;;;;;6.36;90.16;100787.25;5999909;23;20021;-67
2022/02/04 04:15:57;;;;;;;3.40;3.30;;;;;;;5.70;90.57;100682.56;6004447;23;20207;-67
2022/02/04 04:18:23;;;;;;;5.05;4.85;;;;;;;6.34;90.76;100776.03;5994002;23;20011;-67
2022/02/04 04:20:50;;;;;;;4.10;3.90;;;;;;;6.36;90.70;100793.31;6001188;23;20499;-68
2022/02/04 04:23:16;;;;;;;5.35;5.15;;;;;;;5.20;90.75;100595.63;6023247;23;21010;-66
2022/02/04 04:25:42;;;;;;;3.60;3.50;;;;;;;6.18;90.51;100766.09;6004651;23;20015;-67
2022/02/04 04:28:09;;;;;;;5.63;5.38;;;;;;;5.95;90.85;100724.31;6032136;23;20115;-67
2022/02/04 04:30:36;;;;;;;3.38;3.28;;;;;;;6.34;91.18;100791.66;5995557;23;20452;-66
2022/02/04 04:33:03;;;;;;;3.33;3.22;;;;;;;6.36;91.02;100790.72;6023134;23;20027;-69
2022/02/04 04:35:30;;;;;;;3.35;3.25;;;;;;;6.35;91.22;100788.13;5979371;23;20591;-69
2022/02/04 04:43:44;;;;;;;5.07;4.88;;;;;;;6.35;91.08;100788.13;6022266;23;20167;-67
2022/02/04 05:27:56;;;;;;;3.88;3.72;;;;;;;6.60;85.96;100759.50;6022643;23;20380;-66
2022/02/04 05:30:15;;;;;;;5.03;4.82;;;;;;;6.58;85.93;100748.28;6020757;23;20035;-67
2022/02/04 05:32:44;;;;;;;3.60;3.50;;;;;;;6.57;86.32;100749.16;6032402;23;20019;-66
2022/02/04 05:35:11;;;;;;;4.25;4.05;;;;;;;6.60;85.47;100743.84;5994268;23;20031;-67
2022/02/04 05:37:43;;;;;;;3.72;3.55;;;;;;;6.61;85.78;100748.16;6006923;23;20015;-67
2022/02/04 05:40:13;;;;;;;4.85;4.65;;;;;;;6.56;87.22;100748.31;6002531;23;20023;-67
2022/02/04 05:42:46;;;;;;;3.90;3.70;;;;;;;6.63;86.41;100763.75;5998249;23;20035;-67
2022/02/04 05:45:18;;;;;;;4.93;4.72;;;;;;;6.58;85.86;100754.31;5996197;23;20254;-66
2022/02/04 05:47:54;;;;;;;3.60;3.50;;;;;;;6.58;86.52;100754.31;6007596;23;20027;-67
2022/02/04 05:51:19;;;;;;;4.28;4.07;;;;;;;6.43;86.68;100735.75;5999846;23;20042;-67
2022/02/04 05:53:20;;;;;;;4.13;3.95;;;;;;;6.50;86.37;100750.28;6020718;23;20030;-67
2022/02/04 06:24:40;;;;;;;3.35;3.25;;;;;;;6.57;87.69;100763.06;6027039;23;20023;-67
2022/02/04 06:27:07;;;;;;;3.50;3.40;;;;;;;6.56;87.78;100740.50;5998066;23;20019;-67
2022/02/04 06:29:33;;;;;;;3.60;3.50;;;;;;;6.42;87.41;100736.69;6026824;23;20547;-67
2022/02/04 06:32:00;;;;;;;3.40;3.30;;;;;;;6.57;87.78;100747.44;6029454;23;20006;-66
2022/02/04 06:34:26;;;;;;;4.50;4.30;;;;;;;6.59;88.53;100752.56;6024647;23;20085;-67
2022/02/04 06:36:52;;;;;;;3.65;3.55;;;;;;;6.62;87.55;100751.63;6037534;23;20117;-66
2022/02/04 06:39:20;;;;;;;4.90;4.70;;;;;;;6.63;88.33;100746.34;6001564;23;20249;-67
2022/02/04 06:41:46;;;;;;;3.75;3.65;;;;;;;6.62;88.58;100752.47;6022011;23;20011;-67
2022/02/04 06:44:13;;;;;;;4.72;4.53;;;;;;;6.64;88.93;100753.28;6002353;23;20094;-66
2022/02/04 06:46:40;;;;;;;4.20;4.00;;;;;;;6.60;89.26;100756.91;6024302;23;20086;-69
2022/02/04 06:49:06;;;;;;;3.47;3.35;;;;;;;6.49;88.80;100728.56;6004894;23;20034;-67
2022/02/04 06:51:32;;;;;;;3.60;3.50;;;;;;;6.63;89.37;100753.31;6023620;23;20053;-66
2022/02/04 06:53:59;;;;;;;3.53;3.42;;;;;;;6.63;89.23;100755.94;6025489;23;20023;-66
2022/02/04 06:56:25;;;;;;;4.38;4.18;;;;;;;6.63;89.78;100755.94;6025201;23;20031;-69
2022/02/04 06:58:52;;;;;;;3.50;3.40;;;;;;;6.64;90.81;100761.09;6028053;23;20035;-67
2022/02/04 07:01:24;;;;;;;4.63;4.43;;;;;;;6.71;90.23;100765.16;5996022;23;20062;-64
2022/02/04 07:03:50;;;;;;;3.42;3.33;;;;;;;6.67;90.57;100767.94;6011661;23;20023;-67
2022/02/04 07:06:18;;;;;;;5.07;4.88;;;;;;;6.64;91.10;100773.28;5995019;23;20030;-66
2022/02/04 07:14:12;;;;;;;3.60;3.50;;;;;;;6.39;93.17;100735.88;6028924;23;20463;-66
2022/02/04 07:22:08;;;;;;;3.90;3.75;;;;;;;6.38;96.28;100755.00;6020034;23;20057;-66
2022/02/04 07:24:34;;;;;;;3.50;3.40;;;;;;;6.51;97.94;100784.13;6005011;23;20032;-67
2022/02/04 07:27:01;;;;;;;4.13;3.92;;;;;;;6.32;97.46;100750.00;6016956;23;20023;-67
2022/02/04 07:29:29;;;;;;;4.55;4.35;;;;;;;6.18;97.64;100726.16;6025693;23;20011;-65
2022/02/04 07:31:55;;;;;;;3.70;3.60;;;;;;;6.39;98.64;100776.72;6002937;23;20103;-67
2022/02/04 07:42:01;;;;;;;3.60;3.50;;;;;;;6.39;97.94;100751.53;5998024;23;20086;-69
2022/02/04 07:44:27;;;;;;;5.35;5.15;;;;;;;6.36;99.05;100753.38;6009549;23;20085;-72
2022/02/04 07:46:54;;;;;;;3.80;3.70;;;;;;;6.42;98.01;100747.94;5996304;23;20437;-71
2022/02/04 07:49:20;;;;;;;4.70;4.50;;;;;;;6.46;98.20;100752.16;6016471;23;20018;-70
2022/02/04 07:51:46;;;;;;;3.80;3.70;;;;;;;6.50;97.61;100748.53;5994332;23;20022;-70
2022/02/04 07:54:13;;;;;;;4.20;4.00;;;;;;;6.56;97.74;100740.50;6023086;23;20031;-70
2022/02/04 07:56:40;;;;;;;3.58;3.47;;;;;;;6.26;96.79;100673.81;5994547;23;20043;-70
2022/02/04 07:59:08;;;;;;;3.60;3.50;;;;;;;6.51;94.66;100720.69;6022014;23;20164;-71
2022/02/04 08:01:35;;;;;;;3.75;3.65;;;;;;;6.53;94.81;100721.50;5992647;23;20119;-71
2022/02/04 08:06:41;;;;;;;3.95;3.80;;;;;;;6.77;93.84;100722.38;5990873;23;20026;-70
2022/02/04 08:09:17;;;;;;;3.67;3.55;;;;;;;6.74;91.72;100709.47;6027641;23;20278;-71
2022/02/04 08:22:05;;;;;;;4.00;3.80;;;;;;;7.04;90.33;100699.66;6024253;23;20079;-71
2022/02/04 08:27:08;;;;;;;3.58;3.47;;;;;;;6.67;89.94;100622.75;6013553;23;20378;-72
2022/02/04 08:49:02;;;;;;;3.83;3.70;;;;;;;7.62;86.30;100698.28;6018163;23;20025;-69
2022/02/04 08:56:21;;;;;;;4.43;4.22;;;;;;;7.53;86.79;100678.63;5996391;23;20011;-71
2022/02/04 08:58:57;;;;;;;3.80;3.70;;;;;;;7.37;85.95;100641.84;6024737;23;20366;-73
2022/02/04 09:01:29;;;;;;;4.20;4.00;;;;;;;7.74;86.37;100682.16;5994705;23;20334;-74
2022/02/04 09:04:15;;;;;;;3.90;3.70;;;;;;;7.67;85.89;100660.63;6028498;23;20569;-73
2022/02/04 09:06:52;;;;;;;3.80;3.70;;;;;;;7.24;85.99;100580.59;6012312;23;20031;-73
2022/02/04 09:12:20;;;;;;;3.63;3.53;;;;;;;7.97;85.82;100673.34;6004654;23;20023;-72
2022/02/04 09:23:10;;;;;;;3.75;3.65;;;;;;;8.04;83.08;100632.13;5967798;23;20284;-72
2022/02/04 09:25:37;;;;;;;4.00;3.80;;;;;;;8.27;83.20;100662.50;6017835;23;20022;-72
2022/02/04 09:28:04;;;;;;;3.58;3.47;;;;;;;8.18;82.65;100627.19;6007140;23;20027;-72
2022/02/04 09:30:30;;;;;;;5.18;4.97;;;;;;;7.98;81.88;100601.91;6022498;23;20022;-72
2022/02/04 09:32:57;;;;;;;4.50;4.30;;;;;;;8.31;82.24;100651.84;6029884;23;20019;-73
2022/02/04 09:35:24;;;;;;;3.80;3.70;;;;;;;8.23;81.57;100648.72;6022929;23;20025;-73
2022/02/04 09:37:52;;;;;;;3.70;3.60;;;;;;;7.87;82.18;100586.66;6002161;23;20022;-73
2022/02/04 09:40:20;;;;;;;4.95;4.75;;;;;;;8.29;82.44;100653.69;6017462;23;20018;-74
2022/02/04 09:42:47;;;;;;;3.72;3.63;;;;;;;8.23;82.48;100653.09;6027435;23;20114;-72
2022/02/04 09:45:18;;;;;;;3.63;3.53;;;;;;;8.16;82.03;100629.00;6025033;23;20061;-73
2022/02/04 09:47:55;;;;;;;3.63;3.53;;;;;;;8.22;81.63;100641.81;5980455;23;20012;-74
2022/02/04 09:50:24;;;;;;;3.80;3.70;;;;;;;7.58;81.07;100546.97;6029426;23;20512;-74
2022/02/04 10:18:33;;;;;;;3.92;3.78;;;;;;;8.07;83.06;100632.84;6027293;23;20468;-73
2022/02/04 10:21:02;;;;;;;4.00;3.80;;;;;;;8.02;83.26;100629.59;6023101;23;20107;-73
2022/02/04 10:23:49;;;;;;;5.68;5.45;;;;;;;8.08;83.89;100623.22;6028938;23;20471;-74
2022/02/04 10:26:17;;;;;;;4.22;4.05;;;;;;;8.09;83.64;100614.50;5985327;23;20030;-73
2022/02/04 10:28:44;;;;;;;3.80;3.70;;;;;;;7.68;83.01;100530.91;6029197;23;20050;-73
2022/02/04 10:31:21;;;;;;;3.70;3.60;;;;;;;8.26;82.40;100611.13;6004884;23;20220;-74
2022/02/04 10:33:56;;;;;;;3.83;3.72;;;;;;;8.34;81.85;100616.91;6012557;23;20087;-74
2022/02/04 10:36:49;;;;;;;4.97;4.78;;;;;;;7.72;80.94;100488.91;6002035;23;20025;-74
2022/02/04 10:39:24;;;;;;;4.55;4.38;;;;;;;8.41;80.89;100593.94;6038013;23;20081;-74
2022/02/04 10:42:13;;;;;;;3.60;3.50;;;;;;;8.41;80.18;100579.09;6008538;23;20547;-75
2022/02/04 10:44:56;;;;;;;3.55;3.45;;;;;;;7.83;79.07;100479.75;6027089;23;20373;-75
2022/02/04 10:47:30;;;;;;;;;;;;;;;8.57;79.25;100584.50;6018129;23;20015;-73
2022/02/04 10:50:12;;;;;;;3.70;3.60;;;;;;;8.11;79.11;100505.50;6031509;23;20391;-72
2022/02/04 11:00:27;;;;;;;5.55;5.28;;;;;;;8.69;77.42;100575.25;5990201;23;20015;-73
2022/02/04 11:02:58;;;;;;;3.80;3.70;;;;;;;8.65;76.92;100564.06;6029137;23;20033;-74
2022/02/04 11:05:43;;;;;;;5.30;5.10;;;;;;;7.27;76.14;100340.34;6016922;23;20069;-74
2022/02/04 11:11:20;;;;;;;3.75;3.65;;;;;;;8.63;75.17;100534.50;6039292;23;20033;-79
2022/02/04 11:33:49;;;;;;;5.30;5.10;;;;;;;8.40;74.23;100509.41;6019810;23;20015;-70
2022/02/04 11:36:13;;;;;;;3.70;3.60;;;;;;;8.51;73.06;100519.41;5993955;23;20082;-70
2022/02/04 11:48:25;;;;;;;4.00;3.80;;;;;;;8.22;73.57;100457.94;5972466;23;20389;-72
2022/02/04 11:51:14;;;;;;;4.10;3.90;;;;;;;8.03;73.44;100430.03;5996899;23;20107;-72
2022/02/04 11:54:30;;;;;;;4.07;3.88;;;;;;;8.04;73.52;100430.88;6024439;23;20033;-71
2022/02/04 11:57:12;;;;;;;4.00;3.80;;;;;;;7.92;73.44;100407.03;5986117;23;20030;-69
2022/02/04 11:59:45;;;;;;;3.65;3.55;;;;;;;8.42;73.47;100464.88;6029361;23;20309;-72
2022/02/04 12:02:24;;;;;;;4.07;3.88;;;;;;;8.45;72.08;100468.22;6011424;23;20098;-72
2022/02/04 12:05:08;;;;;;;3.80;3.70;;;;;;;8.40;72.02;100459.72;5976274;23;20468;-70
2022/02/04 12:07:42;;;;;;;4.20;4.00;;;;;;;8.25;71.77;100431.66;6007718;23;20307;-71
2022/02/04 12:10:12;;;;;;;3.75;3.65;;;;;;;8.32;72.22;100446.16;5986776;23;20195;-75
2022/02/04 12:12:54;;;;;;;3.72;3.63;;;;;;;8.29;72.77;100433.22;6000090;23;20023;-75
2022/02/04 12:15:30;;;;;;;5.78;5.55;;;;;;;8.23;73.36;100431.75;6011452;23;20036;-72
2022/02/04 12:18:06;;;;;;;3.80;3.70;;;;;;;8.21;74.30;100437.97;5991447;23;20004;-69
2022/02/04 12:20:44;;;;;;;5.63;5.35;;;;;;;8.27;74.53;100437.69;6018751;23;20027;-75
2022/02/04 12:23:29;;;;;;;4.05;3.90;;;;;;;8.16;74.28;100428.56;5966248;23;20027;-72
2022/02/04 12:26:27;;;;;;;3.90;3.70;;;;;;;8.10;75.46;100422.78;6030357;23;20194;-72
2022/02/04 12:29:05;;;;;;;3.83;3.72;;;;;;;7.57;75.78;100338.94;6011641;23;20015;-73
2022/02/04 12:31:38;;;;;;;5.00;4.80;;;;;;;8.07;75.23;100420.31;6023959;23;20147;-73
2022/02/04 12:34:14;;;;;;;3.92;3.80;;;;;;;8.09;76.37;100408.00;6007208;23;20094;-73
2022/02/04 12:36:42;;;;;;;3.80;3.70;;;;;;;8.03;75.99;100371.72;6024609;23;20094;-73
2022/02/04 12:39:17;;;;;;;3.60;3.50;;;;;;;7.63;76.35;100303.88;5983742;23;20022;-74
2022/02/04 12:41:45;;;;;;;3.63;3.53;;;;;;;7.86;76.56;100318.50;6026563;23;20090;-75
2022/02/04 12:44:18;;;;;;;3.80;3.67;;;;;;;7.30;75.89;100196.66;5970269;23;20031;-74
2022/02/04 12:46:54;;;;;;;3.65;3.55;;;;;;;8.38;75.28;100356.97;6023602;23;20045;-74
2022/02/04 12:49:28;;;;;;;5.40;5.15;;;;;;;8.42;74.66;100366.41;6016371;23;20016;-74
2022/02/04 12:52:12;;;;;;;3.50;3.40;;;;;;;8.41;74.68;100355.97;5999143;23;20087;-74
2022/02/04 12:54:50;;;;;;;3.80;3.70;;;;;;;7.74;74.87;100245.94;6025653;23;20023;-74
2022/02/04 13:00:19;;;;;;;3.80;3.70;;;;;;;8.43;74.56;100341.09;6027000;23;20018;-74
2022/02/04 13:08:17;;;;;;;3.75;3.65;;;;;;;8.01;73.81;100238.50;6016790;23;20109;-75
2022/02/04 13:11:00;;;;;;;4.00;3.80;;;;;;;8.63;73.40;100330.47;6026631;23;20477;-73
2022/02/04 13:13:49;;;;;;;5.35;5.15;;;;;;;8.62;73.50;100339.25;5997702;23;20585;-73
2022/02/04 13:16:24;;;;;;;4.30;4.13;;;;;;;8.62;72.13;100339.25;6014957;23;20051;-68
2022/02/04 13:18:51;;;;;;;3.80;3.70;;;;;;;8.59;71.60;100310.63;6013925;23;20027;-69
2022/02/04 13:21:18;;;;;;;5.53;5.32;;;;;;;8.66;71.78;100309.41;6019745;23;20354;-69
2022/02/04 13:23:46;;;;;;;3.90;3.70;;;;;;;8.49;71.25;100271.00;6011001;23;20033;-70
2022/02/04 13:26:13;;;;;;;3.75;3.65;;;;;;;8.73;72.09;100310.78;5988743;23;20035;-70
2022/02/04 13:28:42;;;;;;;4.07;3.88;;;;;;;8.78;72.09;100287.84;6016219;23;20090;-68
2022/02/04 13:31:12;;;;;;;4.00;3.80;;;;;;;8.91;71.39;100288.06;5995745;23;20057;-67
2022/02/04 13:33:38;;;;;;;4.10;3.90;;;;;;;9.18;70.13;100279.66;6011127;23;20074;-67
2022/02/04 13:36:36;;;;;;;4.10;3.90;;;;;;;8.30;69.72;100156.03;6000073;23;20019;-65
2022/02/04 13:39:21;;;;;;;4.05;3.85;;;;;;;9.17;69.62;100288.47;6004028;23;20199;-66
2022/02/04 13:42:10;;;;;;;3.92;3.78;;;;;;;8.72;70.36;100207.06;6022256;23;20017;-71
2022/02/04 13:45:02;;;;;;;4.45;4.25;;;;;;;9.06;70.53;100246.28;6015280;23;20424;-68
2022/02/04 13:48:02;;;;;;;5.43;5.22;;;;;;;9.33;69.56;100259.69;6012409;23;20479;-69
2022/02/04 13:50:45;;;;;;;5.28;5.07;;;;;;;9.26;69.21;100261.81;5995551;23;20050;-74
2022/02/04 13:53:21;;;;;;;3.97;3.80;;;;;;;9.11;69.71;100232.03;6007953;23;20042;-69
2022/02/04 13:58:54;;;;;;;4.13;3.92;;;;;;;9.28;69.67;100246.84;5993554;23;20030;-72
2022/02/04 14:01:22;;;;;;;4.53;4.32;;;;;;;8.54;70.17;100132.19;6024668;23;20382;-72
2022/02/04 14:03:52;;;;;;;4.50;4.30;;;;;;;9.05;70.93;100236.75;6000363;23;20481;-69
2022/02/04 14:06:25;;;;;;;5.13;4.93;;;;;;;8.66;71.61;100175.13;6029897;23;20015;-69
2022/02/04 14:11:27;;;;;;;5.63;5.32;;;;;;;8.88;70.27;100208.84;6026715;23;20018;-69
2022/02/04 14:14:05;;;;;;;3.83;3.72;;;;;;;8.92;69.78;100198.16;6004776;23;20515;-69
2022/02/04 14:16:31;;;;;;;5.35;5.15;;;;;;;8.59;69.73;100143.22;6022220;23;20292;-72
2022/02/04 14:18:58;;;;;;;3.80;3.70;;;;;;;8.29;69.03;100093.38;5993775;23;20054;-69
2022/02/04 14:21:31;;;;;;;5.07;4.88;;;;;;;8.89;68.96;100192.25;5990394;23;20547;-70
2022/02/04 14:24:01;;;;;;;4.05;3.85;;;;;;;8.61;68.82;100120.44;6000049;23;20078;-72
2022/02/04 14:26:32;;;;;;;5.85;5.55;;;;;;;8.21;68.08;100045.88;6014865;23;20026;-70
2022/02/04 14:29:08;;;;;;;4.10;3.90;;;;;;;8.71;68.96;100144.34;5999663;23;20017;-71
2022/02/04 14:31:42;;;;;;;3.97;3.80;;;;;;;8.65;68.79;100119.38;6022435;23;20033;-70
2022/02/04 15:03:35;;;;;;;3.90;3.78;;;;;;;8.52;68.54;100111.34;6018586;23;20456;-72
2022/02/04 15:08:51;;;;;;;3.55;3.45;;;;;;;8.54;67.43;100092.94;6035685;23;20014;-70
2022/02/04 15:11:20;;;;;;;5.22;5.03;;;;;;;8.20;67.98;100050.25;6021142;23;20162;-70
2022/02/04 15:13:48;;;;;;;3.60;3.50;;;;;;;8.69;67.09;100120.88;6007211;23;20027;-71
2022/02/04 15:16:15;;;;;;;4.13;3.97;;;;;;;8.62;67.34;100110.81;6024721;23;20050;-69
2022/02/04 15:18:43;;;;;;;3.95;3.80;;;;;;;8.50;68.05;100096.63;5998299;23;20019;-70
2022/02/04 15:21:16;;;;;;;3.88;3.78;;;;;;;8.62;68.14;100114.31;6019242;23;20042;-71
2022/02/04 15:23:47;;;;;;;3.78;3.67;;;;;;;8.27;68.90;100066.47;5995955;23;20040;-71
2022/02/04 15:26:16;;;;;;;3.88;3.75;;;;;;;8.49;68.71;100108.03;6022696;23;20027;-71
2022/02/04 15:34:01;;;;;;;3.83;3.63;;;;;;;8.23;73.55;100101.53;6000696;23;20228;-71
2022/02/04 15:36:35;;;;;;;5.38;5.18;;;;;;;8.36;74.58;100121.72;6032177;23;20116;-70
2022/02/04 15:39:04;;;;;;;4.72;4.45;;;;;;;8.29;75.76;100136.03;5983308;23;20038;-72
2022/02/04 15:41:32;;;;;;;5.18;4.97;;;;;;;8.16;78.03;100143.66;6023792;23;20086;-71
2022/02/04 15:44:10;;;;;;;3.80;3.70;;;;;;;8.09;79.45;100110.06;5998191;23;20039;-71
2022/02/04 15:49:56;;;;;;;5.40;5.20;;;;;;;7.43;82.39;100053.31;6014999;23;20182;-72
2022/02/04 15:53:01;;;;;;;3.60;3.50;;;;;;;7.28;83.11;100040.13;5999794;23;20500;-71
2022/02/04 16:00:48;;;;;;;3.60;3.50;;;;;;;7.56;86.05;100127.53;6033519;23;20102;-71
2022/02/04 16:03:19;;;;;;;3.50;3.40;;;;;;;7.04;85.76;100036.09;5990371;23;20031;-70
2022/02/04 16:05:45;;;;;;;3.65;3.55;;;;;;;7.51;86.55;100099.00;6024368;23;20030;-69
2022/02/04 16:08:17;;;;;;;3.60;3.50;;;;;;;6.06;86.41;99890.38;6007107;23;20341;-71
2022/02/04 16:11:00;;;;;;;3.70;3.60;;;;;;;7.50;86.76;100133.88;6019446;23;20027;-72
2022/02/04 16:18:38;;;;;;;5.13;4.93;;;;;;;7.01;88.04;100052.72;6023701;23;20014;-71
2022/02/04 16:21:21;;;;;;;4.00;3.80;;;;;;;6.95;88.39;100053.84;6017743;23;20050;-70
2022/02/04 16:24:02;;;;;;;4.70;4.50;;;;;;;6.96;88.63;100066.00;6006254;23;20011;-70
2022/02/04 16:29:14;;;;;;;3.90;3.78;;;;;;;7.13;90.13;100108.69;5994520;23;20035;-71
2022/02/04 16:31:43;;;;;;;5.20;4.65;;;;;;;7.01;90.88;100084.03;6009055;23;20030;-72
2022/02/04 16:34:09;;;;;;;4.10;3.90;;;;;;;6.90;91.65;100094.13;6011702;23;20018;-70
2022/02/04 16:36:56;;;;;;;4.00;3.80;;;;;;;6.98;92.83;100131.13;6015620;23;20027;-69
2022/02/04 16:39:23;;;;;;;5.68;5.45;;;;;;;7.31;93.97;100190.50;5996552;23;20396;-69
2022/02/04 16:41:55;;;;;;;4.15;3.95;;;;;;;7.19;94.60;100199.75;6018264;23;20019;-69
2022/02/04 16:44:21;;;;;;;5.03;4.82;;;;;;;6.69;94.64;100216.75;6022295;23;20065;-69
2022/02/04 16:46:48;;;;;;;3.50;3.40;;;;;;;6.42;92.33;100267.47;5996901;23;20130;-69
2022/02/04 16:49:15;;;;;;;4.35;4.05;;;;;;;6.24;90.14;100316.84;6019955;23;20021;-69
2022/02/04 16:51:42;;;;;;;3.40;3.30;;;;;;;6.10;90.69;100322.59;6002458;23;20031;-69
2022/02/04 16:54:09;;;;;;;4.15;3.95;;;;;;;5.42;89.74;100297.44;5994206;23;20463;-69
2022/02/04 16:56:36;;;;;;;3.50;3.40;;;;;;;5.68;90.55;100384.97;6018583;23;20577;-69
2022/02/04 16:59:04;;;;;;;3.55;3.35;;;;;;;5.45;90.14;100385.78;5993790;23;20222;-69
2022/02/04 17:01:31;;;;;;;5.68;5.45;;;;;;;5.14;90.06;100392.94;5990289;23;20014;-69
2022/02/04 17:03:58;;;;;;;3.50;3.40;;;;;;;4.80;89.60;100380.22;6024293;23;20090;-68
2022/02/04 17:06:27;;;;;;;5.25;5.05;;;;;;;4.83;88.87;100441.66;6018810;23;20323;-68
2022/02/04 17:09:04;;;;;;;3.47;3.38;;;;;;;4.00;88.51;100372.38;5997566;23;20328;-68
2022/02/04 17:11:34;;;;;;;4.05;3.85;;;;;;;4.60;89.14;100496.09;6016059;23;20536;-68
2022/02/04 17:14:01;;;;;;;3.47;3.38;;;;;;;4.48;88.23;100487.81;5967795;23;20393;-68
2022/02/04 17:16:27;;;;;;;5.43;5.22;;;;;;;3.82;87.63;100373.78;5997120;23;20160;-68
2022/02/04 17:18:55;;;;;;;3.45;3.35;;;;;;;4.25;88.82;100504.94;5989909;23;20015;-68
2022/02/04 17:21:24;;;;;;;6.07;5.78;;;;;;;3.66;89.16;100424.41;6012479;23;20090;-68
2022/02/04 17:23:53;;;;;;;3.03;2.92;;;;;;;4.13;89.50;100513.94;6021529;23;20524;-68
2022/02/04 17:26:22;;;;;;;5.43;5.22;;;;;;;4.31;90.31;100541.13;6013612;23;20101;-68
2022/02/04 17:28:51;;;;;;;3.60;3.50;;;;;;;4.32;89.89;100565.38;6014345;23;20444;-68
2022/02/04 17:31:18;;;;;;;4.93;4.72;;;;;;;3.63;90.92;100450.44;6017285;23;20656;-67
2022/02/04 17:33:45;;;;;;;3.30;3.20;;;;;;;4.36;89.30;100573.00;5988326;23;20027;-67
2022/02/04 17:36:12;;;;;;;3.25;3.15;;;;;;;4.34;88.23;100594.75;6031595;23;20121;-67
2022/02/04 17:38:39;;;;;;;3.38;3.28;;;;;;;4.34;88.29;100584.34;5995959;23;20396;-67
2022/02/04 17:41:08;;;;;;;3.55;3.42;;;;;;;4.30;88.61;100603.53;6024128;23;20044;-67
2022/02/04 17:43:35;;;;;;;3.70;3.60;;;;;;;3.90;88.22;100537.09;5983242;23;20433;-67
2022/02/04 17:46:04;;;;;;;3.22;3.13;;;;;;;4.03;89.33;100605.09;6024900;23;20164;-67
2022/02/04 17:48:43;;;;;;;5.75;5.50;;;;;;;4.18;88.92;100625.47;5984234;23;20351;-67
2022/02/04 17:53:55;;;;;;;3.22;3.13;;;;;;;4.34;89.96;100647.56;6020564;23;20414;-67
2022/02/04 17:56:31;;;;;;;5.45;5.15;;;;;;;4.27;88.91;100661.63;5990335;23;20134;-67
2022/02/04 17:59:16;;;;;;;3.20;3.10;;;;;;;3.79;89.88;100578.94;6021144;23;20023;-67
2022/02/04 18:02:00;;;;;;;3.17;3.08;;;;;;;4.09;90.32;100623.13;5995197;23;20331;-68
2022/02/04 18:07:21;;;;;;;20.55;19.55;;;;;;;3.63;91.40;100590.56;5920508;23;20408;-69
2022/02/04 18:09:48;;;;;;;3.20;3.10;;;;;;;3.90;92.26;100639.19;6015444;23;20093;-69